createdAt,value
2019-02-20T00:01:59.826Z,11.93
2019-02-20T00:07:42.643Z,17.77
2019-02-20T00:10:23.310Z,14.73
2019-02-20T00:13:03.975Z,17.23
2019-02-20T00:15:45.163Z,19.23
2019-02-20T00:18:27.579Z,13.33
2019-02-20T00:21:08.337Z,16.57
2019-02-20T00:23:49.053Z,15.60
2019-02-20T00:26:30.057Z,15.00
2019-02-20T00:29:10.554Z,16.90
2019-02-20T00:31:51.248Z,22.17
2019-02-20T00:34:31.804Z,17.43
2019-02-20T00:37:00.637Z,17.27
2019-02-20T00:39:48.684Z,16.13
2019-02-20T00:42:36.654Z,11.80
2019-02-20T00:45:38.136Z,15.70
2019-02-20T00:51:51.751Z,14.47
2019-02-20T00:57:14.946Z,17.97
2019-02-20T00:59:57.152Z,15.37
2019-02-20T01:02:41.646Z,18.30
2019-02-20T01:05:23.192Z,16.00
2019-02-20T01:07:51.692Z,17.10
2019-02-20T01:10:39.578Z,23.13
2019-02-20T01:13:27.459Z,18.20
2019-02-20T01:16:08.457Z,16.37
2019-02-20T01:18:49.390Z,19.00
2019-02-20T01:21:30.238Z,15.87
2019-02-20T01:24:11.258Z,19.13
2019-02-20T01:26:51.649Z,20.57
2019-02-20T01:29:20.396Z,24.00
2019-02-20T01:32:08.196Z,16.87
2019-02-20T01:34:49.276Z,20.50
2019-02-20T01:37:30.991Z,16.63
2019-02-20T01:40:11.880Z,24.63
2019-02-20T01:42:52.700Z,15.23
2019-02-20T01:45:33.241Z,16.80
2019-02-20T01:48:13.621Z,15.33
2019-02-20T01:50:54.219Z,15.63
2019-02-20T01:53:34.963Z,17.93
2019-02-20T01:56:15.983Z,17.67
2019-02-20T01:58:44.456Z,18.67
2019-02-20T02:01:32.353Z,19.27
2019-02-20T02:04:20.233Z,20.00
2019-02-20T02:07:00.590Z,17.20
2019-02-20T02:09:41.293Z,17.83
2019-02-20T02:12:22.006Z,15.07
2019-02-20T02:15:02.821Z,17.93
2019-02-20T02:17:43.622Z,16.13
2019-02-20T02:20:24.246Z,17.23
2019-02-20T02:23:04.828Z,15.83
2019-02-20T02:25:45.869Z,16.60
2019-02-20T02:28:26.693Z,12.80
2019-02-20T02:31:07.384Z,17.57
2019-02-20T02:33:48.032Z,19.43
2019-02-20T02:36:28.689Z,17.80
2019-02-20T02:39:09.884Z,18.93
2019-02-20T02:41:50.141Z,18.10
2019-02-20T02:44:30.638Z,17.17
2019-02-20T02:47:11.745Z,16.83
2019-02-20T02:49:52.926Z,16.17
2019-02-20T02:52:33.412Z,16.87
2019-02-20T02:55:14.381Z,22.47
2019-02-20T02:57:55.351Z,15.67
2019-02-20T03:00:36.206Z,24.47
2019-02-20T03:03:17.063Z,17.73
2019-02-20T03:06:01.032Z,15.17
2019-02-20T03:08:42.119Z,18.20
2019-02-20T03:11:22.964Z,14.77
2019-02-20T03:14:03.951Z,18.00
2019-02-20T03:16:47.561Z,16.83
2019-02-20T03:19:29.028Z,14.07
2019-02-20T03:22:10.100Z,18.30
2019-02-20T03:24:50.682Z,24.17
2019-02-20T03:27:31.788Z,23.33
2019-02-20T03:30:12.738Z,20.53
2019-02-20T03:32:53.458Z,18.60
2019-02-20T03:35:22.351Z,18.70
2019-02-20T03:38:10.473Z,17.67
2019-02-20T03:40:51.520Z,17.43
2019-02-20T03:43:32.727Z,15.27
2019-02-20T03:46:13.584Z,11.87
2019-02-20T03:48:42.512Z,19.37
2019-02-20T03:51:30.691Z,18.17
2019-02-20T03:54:11.755Z,17.57
2019-02-20T03:56:52.599Z,17.47
2019-02-20T03:59:33.189Z,17.00
2019-02-20T04:02:14.256Z,19.67
2019-02-20T04:04:55.045Z,17.73
2019-02-20T04:07:36.021Z,21.37
2019-02-20T04:10:16.837Z,15.53
2019-02-20T04:12:57.425Z,18.07
2019-02-20T04:15:25.871Z,21.10
2019-02-20T04:18:13.752Z,22.40
2019-02-20T04:21:01.564Z,15.93
2019-02-20T04:23:41.950Z,18.20
2019-02-20T04:26:22.915Z,13.73
2019-02-20T04:29:03.806Z,18.97
2019-02-20T04:31:44.682Z,22.33
2019-02-20T04:34:25.601Z,16.27
2019-02-20T04:37:06.659Z,20.33
2019-02-20T04:39:47.620Z,16.00
2019-02-20T04:42:28.388Z,22.23
2019-02-20T04:45:09.150Z,12.63
2019-02-20T04:47:49.645Z,17.03
2019-02-20T04:50:30.390Z,17.20
2019-02-20T04:53:11.448Z,13.03
2019-02-20T04:55:52.154Z,17.43
2019-02-20T04:58:33.003Z,19.73
2019-02-20T05:01:13.760Z,18.13
2019-02-20T05:03:54.666Z,16.53
2019-02-20T05:06:35.552Z,19.80
2019-02-20T05:09:17.130Z,13.27
2019-02-20T05:11:58.505Z,14.10
2019-02-20T05:14:39.600Z,14.47
2019-02-20T05:17:20.605Z,15.90
2019-02-20T05:20:01.634Z,14.07
2019-02-20T05:22:42.185Z,18.00
2019-02-20T05:25:22.826Z,19.00
2019-02-20T05:28:03.623Z,13.47
2019-02-20T05:30:44.510Z,12.03
2019-02-20T05:33:25.396Z,18.23
2019-02-20T05:35:53.887Z,18.50
2019-02-20T05:38:41.679Z,14.80
2019-02-20T05:41:22.615Z,12.37
2019-02-20T05:44:03.619Z,19.50
2019-02-20T05:46:32.078Z,15.60
2019-02-20T05:49:19.956Z,21.70
2019-02-20T05:52:00.288Z,15.90
2019-02-20T05:54:41.130Z,13.60
2019-02-20T05:57:21.709Z,18.00
2019-02-20T06:00:02.447Z,17.23
2019-02-20T06:02:43.090Z,22.40
2019-02-20T06:05:23.600Z,15.17
2019-02-20T06:08:04.269Z,18.33
2019-02-20T06:10:45.102Z,18.67
2019-02-20T06:13:26.208Z,19.80
2019-02-20T06:16:07.353Z,19.80
2019-02-20T06:18:47.714Z,20.70
2019-02-20T06:21:28.113Z,15.07
2019-02-20T06:24:08.437Z,20.30
2019-02-20T06:26:49.299Z,18.67
2019-02-20T06:29:30.711Z,14.17
2019-02-20T06:32:11.756Z,19.27
2019-02-20T06:34:52.338Z,18.47
2019-02-20T06:37:33.035Z,22.80
2019-02-20T06:40:13.457Z,15.73
2019-02-20T06:42:54.329Z,15.87
2019-02-20T06:45:34.852Z,15.63
2019-02-20T06:48:15.327Z,16.07
2019-02-20T06:50:56.235Z,13.63
2019-02-20T06:53:36.793Z,15.87
2019-02-20T06:56:17.588Z,18.90
2019-02-20T06:58:58.414Z,17.20
2019-02-20T07:01:39.325Z,20.83
2019-02-20T07:04:08.008Z,18.10
2019-02-20T07:07:15.209Z,14.90
2019-02-20T07:10:22.430Z,19.57
2019-02-20T07:13:11.601Z,22.50
2019-02-20T07:19:15.908Z,18.90
2019-02-20T07:25:10.404Z,20.97
2019-02-20T07:27:50.950Z,25.80
2019-02-20T07:30:31.692Z,17.00
2019-02-20T07:33:13.219Z,15.83
2019-02-20T07:35:54.351Z,18.20
2019-02-20T07:38:35.008Z,17.07
2019-02-20T07:41:15.756Z,19.10
2019-02-20T07:43:56.581Z,21.30
2019-02-20T07:46:25.435Z,23.27
2019-02-20T07:49:13.342Z,24.53
2019-02-20T07:52:01.135Z,21.77
2019-02-20T07:54:41.747Z,17.97
2019-02-20T07:57:22.994Z,24.50
2019-02-20T07:59:51.565Z,20.53
2019-02-20T08:02:39.572Z,17.47
2019-02-20T08:05:21.523Z,23.97
2019-02-20T08:08:03.752Z,25.97
2019-02-20T08:10:44.794Z,26.20
2019-02-20T08:13:25.629Z,23.27
2019-02-20T08:16:06.448Z,21.97
2019-02-20T08:18:47.553Z,22.97
2019-02-20T08:21:16.039Z,25.33
2019-02-20T08:24:03.929Z,21.53
2019-02-20T08:26:51.801Z,20.47
2019-02-20T08:29:32.730Z,20.53
2019-02-20T08:32:13.200Z,22.33
2019-02-20T08:34:54.142Z,19.27
2019-02-20T08:37:34.981Z,24.40
2019-02-20T08:40:15.592Z,23.37
2019-02-20T08:42:56.352Z,26.47
2019-02-20T08:45:36.765Z,23.13
2019-02-20T08:48:17.629Z,31.53
2019-02-20T08:50:58.490Z,23.30
2019-02-20T08:53:39.042Z,22.97
2019-02-20T08:56:07.581Z,25.33
2019-02-20T08:58:55.487Z,24.70
2019-02-20T09:01:43.413Z,23.53
2019-02-20T09:04:24.735Z,19.10
2019-02-20T09:07:05.991Z,22.83
2019-02-20T09:09:47.956Z,19.07
2019-02-20T09:12:28.608Z,30.80
2019-02-20T09:15:09.636Z,25.23
2019-02-20T09:17:50.310Z,23.50
2019-02-20T09:20:31.071Z,24.50
2019-02-20T09:23:11.985Z,25.03
2019-02-20T09:25:53.050Z,25.23
2019-02-20T09:28:33.696Z,28.53
2019-02-20T09:31:14.171Z,25.47
2019-02-20T09:33:56.690Z,24.47
2019-02-20T09:36:37.730Z,25.40
2019-02-20T09:39:46.308Z,23.73
2019-02-20T09:42:14.875Z,22.30
2019-02-20T09:45:02.766Z,20.03
2019-02-20T09:47:41.755Z,24.87
2019-02-20T09:50:29.571Z,20.97
2019-02-20T09:53:10.385Z,25.03
2019-02-20T09:55:51.792Z,22.93
2019-02-20T09:58:33.240Z,18.53
2019-02-20T10:01:13.551Z,24.17
2019-02-20T10:03:42.105Z,21.20
2019-02-20T10:06:10.590Z,20.97
2019-02-20T10:08:58.394Z,21.97
2019-02-20T10:11:46.225Z,23.77
2019-02-20T10:14:27.230Z,21.60
2019-02-20T10:17:07.793Z,18.07
2019-02-20T10:19:48.844Z,23.67
2019-02-20T10:22:17.369Z,22.27
2019-02-20T10:25:25.916Z,26.57
2019-02-20T10:28:13.802Z,19.97
2019-02-20T10:30:54.778Z,24.77
2019-02-20T10:33:35.548Z,25.53
2019-02-20T10:36:16.592Z,21.27
2019-02-20T10:38:57.145Z,19.27
2019-02-20T10:41:37.664Z,20.20
2019-02-20T10:44:18.458Z,22.30
2019-02-20T10:46:59.271Z,20.80
2019-02-20T10:49:40.361Z,18.43
2019-02-20T10:52:19.272Z,18.60
2019-02-20T10:54:59.718Z,20.83
2019-02-20T10:57:40.253Z,19.73
2019-02-20T11:00:24.348Z,20.70
2019-02-20T11:03:05.445Z,21.30
2019-02-20T11:05:46.562Z,20.87
2019-02-20T11:08:27.402Z,17.30
2019-02-20T11:11:08.492Z,13.70
2019-02-20T11:13:49.376Z,15.13
2019-02-20T11:16:17.933Z,19.83
2019-02-20T11:19:05.738Z,19.40
2019-02-20T11:21:34.293Z,16.47
2019-02-20T11:24:22.099Z,18.63
2019-02-20T11:27:03.089Z,15.47
2019-02-20T11:29:43.604Z,17.77
2019-02-20T11:32:12.222Z,14.27
2019-02-20T11:35:00.094Z,14.40
2019-02-20T11:37:41.136Z,15.83
2019-02-20T11:40:21.785Z,15.50
2019-02-20T11:43:02.413Z,15.10
2019-02-20T11:45:30.948Z,18.03
2019-02-20T11:48:18.739Z,19.63
2019-02-20T11:50:58.944Z,14.47
2019-02-20T11:53:27.412Z,17.27
2019-02-20T11:56:15.212Z,12.23
2019-02-20T11:58:43.678Z,14.20
2019-02-20T12:01:31.530Z,12.20
2019-02-20T12:04:19.350Z,12.33
2019-02-20T12:07:00.537Z,12.43
2019-02-20T12:09:41.434Z,15.40
2019-02-20T12:12:22.179Z,12.07
2019-02-20T12:15:03.266Z,16.50
2019-02-20T12:17:43.933Z,15.23
2019-02-20T12:20:24.476Z,16.60
2019-02-20T12:23:05.068Z,13.40
2019-02-20T12:25:45.922Z,14.73
2019-02-20T12:28:26.721Z,14.53
2019-02-20T12:30:56.010Z,12.70
2019-02-20T12:33:44.741Z,14.77
2019-02-20T12:36:32.629Z,14.03
2019-02-20T12:39:13.232Z,11.20
2019-02-20T12:41:54.019Z,14.47
2019-02-20T12:44:34.709Z,12.20
2019-02-20T12:47:15.325Z,11.97
2019-02-20T12:49:56.140Z,11.27
2019-02-20T12:52:36.936Z,11.50
2019-02-20T12:55:17.523Z,12.43
2019-02-20T12:57:58.123Z,8.37
2019-02-20T13:00:38.650Z,13.43
2019-02-20T13:03:19.260Z,10.60
2019-02-20T13:06:00.200Z,6.63
2019-02-20T13:08:40.783Z,8.13
2019-02-20T13:11:21.650Z,15.17
2019-02-20T13:14:02.191Z,8.13
2019-02-20T13:16:42.729Z,8.50
2019-02-20T13:19:23.696Z,10.93
2019-02-20T13:22:04.437Z,9.97
2019-02-20T13:24:45.183Z,10.70
2019-02-20T13:27:26.167Z,11.93
2019-02-20T13:30:06.710Z,11.67
2019-02-20T13:32:47.523Z,11.03
2019-02-20T13:35:28.459Z,9.50
2019-02-20T13:38:09.146Z,7.57
2019-02-20T13:40:50.057Z,9.90
2019-02-20T13:43:30.884Z,9.07
2019-02-20T13:46:11.816Z,10.13
2019-02-20T13:48:40.423Z,8.97
2019-02-20T13:51:28.307Z,9.20
2019-02-20T13:54:16.188Z,9.03
2019-02-20T13:56:44.799Z,11.70
2019-02-20T13:59:32.670Z,9.90
2019-02-20T14:02:13.461Z,11.10
2019-02-20T14:04:56.295Z,8.73
2019-02-20T14:07:37.113Z,8.93
2019-02-20T14:13:26.178Z,9.97
2019-02-20T14:16:07.128Z,11.67
2019-02-20T14:18:48.148Z,11.80
2019-02-20T14:21:28.974Z,11.47
2019-02-20T14:24:09.464Z,9.93
2019-02-20T14:26:50.101Z,10.30
2019-02-20T14:29:30.945Z,11.23
2019-02-20T14:32:11.761Z,8.37
2019-02-20T14:34:52.683Z,10.63
2019-02-20T14:37:21.288Z,10.27
2019-02-20T14:40:09.409Z,12.53
2019-02-20T14:42:57.323Z,12.70
2019-02-20T14:45:38.221Z,13.20
2019-02-20T14:48:19.114Z,11.97
2019-02-20T14:50:59.814Z,16.53
2019-02-20T14:53:40.527Z,16.17
2019-02-20T14:56:20.998Z,11.83
2019-02-20T14:59:03.192Z,13.60
2019-02-20T15:01:44.049Z,16.60
2019-02-20T15:04:12.949Z,13.97
2019-02-20T15:07:00.822Z,12.63
2019-02-20T15:09:48.804Z,10.93
2019-02-20T15:12:29.491Z,12.13
2019-02-20T15:14:58.064Z,14.53
2019-02-20T15:17:26.568Z,13.77
2019-02-20T15:20:14.389Z,15.00
2019-02-20T15:23:02.268Z,14.50
2019-02-20T15:25:50.163Z,13.93
2019-02-20T15:28:33.517Z,9.73
2019-02-20T15:31:14.295Z,12.07
2019-02-20T15:33:55.365Z,10.37
2019-02-20T15:39:20.481Z,13.80
2019-02-20T15:42:01.339Z,11.63
2019-02-20T15:44:42.760Z,12.50
2019-02-20T15:47:26.716Z,12.03
2019-02-20T15:50:07.172Z,13.33
2019-02-20T15:52:48.081Z,15.37
2019-02-20T15:55:28.701Z,14.43
2019-02-20T15:57:57.233Z,12.07
2019-02-20T16:00:45.135Z,14.63
2019-02-20T16:03:32.969Z,15.07
2019-02-20T16:06:11.842Z,20.10
2019-02-20T16:08:59.996Z,16.50
2019-02-20T16:11:41.108Z,16.77
2019-02-20T16:14:22.332Z,13.10
2019-02-20T16:17:02.917Z,14.93
2019-02-20T16:19:43.970Z,13.37
2019-02-20T16:22:24.536Z,17.83
2019-02-20T16:25:05.361Z,18.87
2019-02-20T16:27:47.537Z,13.37
2019-02-20T16:30:29.144Z,15.47
2019-02-20T16:33:10.098Z,14.77
2019-02-20T16:35:51.088Z,15.87
2019-02-20T16:38:32.114Z,14.30
2019-02-20T16:41:12.929Z,15.27
2019-02-20T16:43:53.371Z,14.77
2019-02-20T16:46:34.092Z,18.60
2019-02-20T16:49:14.903Z,18.67
2019-02-20T16:51:55.813Z,13.30
2019-02-20T16:54:36.650Z,13.63
2019-02-20T16:57:17.526Z,17.77
2019-02-20T16:59:57.977Z,14.50
2019-02-20T17:02:38.615Z,12.73
2019-02-20T17:05:19.412Z,18.40
2019-02-20T17:08:00.445Z,14.50
2019-02-20T17:10:41.024Z,14.33
2019-02-20T17:13:21.834Z,13.87
2019-02-20T17:16:02.691Z,14.67
2019-02-20T17:18:43.761Z,13.10
2019-02-20T17:21:24.588Z,14.10
2019-02-20T17:30:03.404Z,12.47
2019-02-20T17:32:44.280Z,12.77
2019-02-20T17:35:24.992Z,17.20
2019-02-20T17:38:05.951Z,13.40
2019-02-20T17:46:43.755Z,11.87
2019-02-20T17:49:24.616Z,10.37
2019-02-20T17:52:05.595Z,12.03
2019-02-20T17:54:46.254Z,12.67
2019-02-20T17:57:26.989Z,11.10
2019-02-20T18:00:08.064Z,12.63
2019-02-20T18:02:49.270Z,12.87
2019-02-20T18:05:29.906Z,11.70
2019-02-20T18:07:58.389Z,12.80
2019-02-20T18:10:46.188Z,13.20
2019-02-20T18:13:27.097Z,13.00
2019-02-20T18:16:08.358Z,16.40
2019-02-20T18:18:36.822Z,9.77
2019-02-20T18:21:24.625Z,11.23
2019-02-20T18:24:12.445Z,13.13
2019-02-20T18:26:53.600Z,10.73
2019-02-20T18:29:34.382Z,14.60
2019-02-20T18:32:15.120Z,11.37
2019-02-20T18:34:55.859Z,14.00
2019-02-20T18:37:36.910Z,14.57
2019-02-20T18:43:25.969Z,12.73
2019-02-20T18:46:06.981Z,15.63
2019-02-20T18:48:48.314Z,13.90
2019-02-20T18:51:28.888Z,10.90
2019-02-20T18:54:09.678Z,14.80
2019-02-20T18:56:50.735Z,13.63
2019-02-20T18:59:19.311Z,12.70
2019-02-20T19:02:07.173Z,15.80
2019-02-20T19:04:48.349Z,12.67
2019-02-20T19:07:29.276Z,13.33
2019-02-20T19:09:57.774Z,12.93
2019-02-20T19:13:06.312Z,15.97
2019-02-20T19:16:13.441Z,14.33
2019-02-20T19:19:20.636Z,14.43
2019-02-20T19:22:01.907Z,15.93
2019-02-20T19:25:09.114Z,16.67
2019-02-20T19:28:16.236Z,14.93
2019-02-20T19:31:24.842Z,12.50
2019-02-20T19:34:40.018Z,13.43
2019-02-20T19:37:13.992Z,15.03
2019-02-20T19:39:55.152Z,11.17
2019-02-20T19:46:03.417Z,13.97
2019-02-20T19:48:44.256Z,11.43
2019-02-20T19:51:25.362Z,13.50
2019-02-20T19:54:32.501Z,13.33
2019-02-20T19:57:13.367Z,15.30
2019-02-20T19:59:53.729Z,11.07
2019-02-20T20:02:34.677Z,13.53
2019-02-20T20:05:15.231Z,11.90
2019-02-20T20:07:56.172Z,12.13
2019-02-20T20:10:36.977Z,13.03
2019-02-20T20:13:17.938Z,14.33
2019-02-20T20:15:58.759Z,15.40
2019-02-20T20:18:39.636Z,12.67
2019-02-20T20:21:20.387Z,12.20
2019-02-20T20:24:27.527Z,12.17
2019-02-20T20:27:07.901Z,12.43
2019-02-20T20:29:48.771Z,15.80
2019-02-20T20:32:30.567Z,11.63
2019-02-20T20:35:19.940Z,15.83
2019-02-20T20:38:01.068Z,14.20
2019-02-20T20:44:09.004Z,17.10
2019-02-20T20:47:16.210Z,18.90
2019-02-20T20:50:23.400Z,12.37
2019-02-20T20:53:03.796Z,16.70
2019-02-20T20:55:44.710Z,17.83
2019-02-20T20:58:25.757Z,13.13
2019-02-20T21:04:26.508Z,15.07
2019-02-20T21:07:33.635Z,15.93
2019-02-20T21:10:40.787Z,13.63
2019-02-20T21:13:40.238Z,13.93
2019-02-20T21:16:47.441Z,14.80
2019-02-20T21:19:28.016Z,14.40
2019-02-20T21:22:08.925Z,13.93
2019-02-20T21:25:17.526Z,15.73
2019-02-20T21:28:24.717Z,13.90
2019-02-20T21:31:05.134Z,16.03
2019-02-20T21:34:12.277Z,14.07
2019-02-20T21:40:20.106Z,15.93
2019-02-20T21:43:00.647Z,19.43
2019-02-20T21:45:41.140Z,18.90
2019-02-20T21:48:21.995Z,17.20
2019-02-20T21:51:02.944Z,17.90
2019-02-20T21:53:43.745Z,16.70
2019-02-20T21:56:24.661Z,16.57
2019-02-20T21:59:05.997Z,16.70
2019-02-20T22:01:46.396Z,14.43
2019-02-20T22:04:27.303Z,18.10
2019-02-20T22:07:34.436Z,16.50
2019-02-20T22:10:15.352Z,18.10
2019-02-20T22:12:56.135Z,18.13
2019-02-20T22:15:37.044Z,18.13
2019-02-20T22:18:17.769Z,17.77
2019-02-20T22:20:58.718Z,18.37
2019-02-20T22:23:39.625Z,16.77
2019-02-20T22:26:20.347Z,21.63
2019-02-20T22:29:01.194Z,20.17
2019-02-20T22:32:08.436Z,19.33
2019-02-20T22:38:08.891Z,19.90
2019-02-20T22:44:04.554Z,21.27
2019-02-20T22:46:45.381Z,18.73
2019-02-20T22:49:26.221Z,19.13
2019-02-20T22:52:06.800Z,17.30
2019-02-20T22:54:47.372Z,18.60
2019-02-20T22:57:27.890Z,17.67
2019-02-20T23:00:08.621Z,21.67
2019-02-20T23:02:49.648Z,19.37
2019-02-20T23:11:59.436Z,20.70
2019-02-20T23:14:40.541Z,20.17
2019-02-20T23:17:21.205Z,18.77
2019-02-20T23:20:01.809Z,18.83
2019-02-20T23:22:42.852Z,20.77
2019-02-20T23:25:11.347Z,17.20
2019-02-20T23:27:39.885Z,19.80
2019-02-20T23:30:27.781Z,18.57
2019-02-20T23:33:15.598Z,20.70
2019-02-20T23:35:56.364Z,21.80
2019-02-20T23:38:37.379Z,19.43
2019-02-20T23:41:18.253Z,22.57
2019-02-20T23:43:58.877Z,17.87
2019-02-20T23:46:39.938Z,22.90
2019-02-20T23:49:08.450Z,23.23
2019-02-20T23:51:56.455Z,22.57
2019-02-20T23:54:44.417Z,26.27
2019-02-20T23:57:25.258Z,21.93
